KLM743 EHAM-SPJC
Flight info
| Callsign | KLM743 |
|---|---|
| Flight time | N/A |
| Altitude | 23000 |
| Route | WOODY N872 CIV/N0482F290 DCT KOVIN DCT NIDUV DCT KIHVI UN872 ERIGA UN741 AZFIC DCT LOTEE DCT AGADO DCT GUNTI/M083F300 DCT 3630N02000W 32N030W/M083F320 27N040W 24N045W 20N050W DCT DABAK/N0499F320 DCT PIPUV/N0492F340 DCT USABO DCT DOBDA UM527 VADOS |
| Aircraft | B77W/H-SDE1E2E3FGHIJ2J3J4J5M1RWXY/LB1D1 |
Departure
| Time | 2026-05-06 07:24 |
|---|---|
| Airport | Amsterdam Airport Schiphol (EHAM) |
Arrival
| Time | N/A |
|---|---|
| Airport | Jorge Chávez International Airport (SPJC) |
| Time | Latitude | Longitude | Altitude | Speed | Heading |
|---|---|---|---|---|---|
| 2026-05-06 07:03 | 52.31285 | 4.75583 | 2 ft | 0 kts | 87° |
| 2026-05-06 07:11 | 52.31285 | 4.75572 | 3 ft | 2 kts | 86° |
| 2026-05-06 07:11 | 52.31283 | 4.75545 | 3 ft | 2 kts | 85° |
| 2026-05-06 07:11 | 52.31282 | 4.75518 | 4 ft | 2 kts | 82° |
| 2026-05-06 07:11 | 52.31279 | 4.75492 | 4 ft | 2 kts | 76° |
| 2026-05-06 07:12 | 52.31273 | 4.75466 | 5 ft | 2 kts | 52° |
| 2026-05-06 07:12 | 52.31261 | 4.75454 | 4 ft | 1 kts | 357° |
| 2026-05-06 07:12 | 52.31258 | 4.75454 | 6 ft | 0 kts | 357° |
| 2026-05-06 07:15 | 52.31286 | 4.75452 | 3 ft | 6 kts | 358° |
| 2026-05-06 07:15 | 52.31335 | 4.75449 | 2 ft | 8 kts | 358° |
| 2026-05-06 07:15 | 52.31393 | 4.75444 | 2 ft | 8 kts | 356° |
| 2026-05-06 07:16 | 52.31452 | 4.75438 | 2 ft | 9 kts | 356° |
| 2026-05-06 07:16 | 52.31503 | 4.75385 | 2 ft | 10 kts | 292° |
| 2026-05-06 07:16 | 52.31506 | 4.75275 | 2 ft | 10 kts | 268° |
| 2026-05-06 07:16 | 52.31503 | 4.75165 | 2 ft | 10 kts | 267° |
| 2026-05-06 07:17 | 52.31500 | 4.75055 | 2 ft | 10 kts | 267° |
| 2026-05-06 07:17 | 52.31496 | 4.74944 | 2 ft | 10 kts | 267° |
| 2026-05-06 07:17 | 52.31492 | 4.74826 | 2 ft | 12 kts | 266° |
| 2026-05-06 07:17 | 52.31486 | 4.74694 | 2 ft | 12 kts | 266° |
| 2026-05-06 07:18 | 52.31481 | 4.74564 | 2 ft | 12 kts | 266° |
| 2026-05-06 07:18 | 52.31476 | 4.74432 | 2 ft | 12 kts | 268° |
| 2026-05-06 07:18 | 52.31461 | 4.74305 | 2 ft | 12 kts | 233° |
| 2026-05-06 07:18 | 52.31396 | 4.74232 | 2 ft | 12 kts | 245° |
| 2026-05-06 07:19 | 52.31346 | 4.74132 | 2 ft | 12 kts | 195° |
| 2026-05-06 07:19 | 52.31260 | 4.74123 | 2 ft | 13 kts | 183° |
| 2026-05-06 07:19 | 52.31162 | 4.74114 | 2 ft | 15 kts | 183° |
| 2026-05-06 07:19 | 52.31058 | 4.74105 | 2 ft | 15 kts | 183° |
| 2026-05-06 07:20 | 52.30954 | 4.74096 | 2 ft | 15 kts | 183° |
| 2026-05-06 07:20 | 52.30850 | 4.74087 | 2 ft | 15 kts | 183° |
| 2026-05-06 07:20 | 52.30746 | 4.74076 | 2 ft | 15 kts | 183° |
| 2026-05-06 07:20 | 52.30642 | 4.74066 | 2 ft | 15 kts | 183° |
| 2026-05-06 07:21 | 52.30539 | 4.74056 | 2 ft | 15 kts | 183° |
| 2026-05-06 07:21 | 52.30435 | 4.74048 | 2 ft | 15 kts | 184° |
| 2026-05-06 07:21 | 52.30340 | 4.74031 | 2 ft | 12 kts | 194° |
| 2026-05-06 07:21 | 52.30264 | 4.73969 | 2 ft | 12 kts | 217° |
| 2026-05-06 07:22 | 52.30206 | 4.73890 | 1 ft | 11 kts | 225° |
| 2026-05-06 07:22 | 52.30190 | 4.73778 | 2 ft | 11 kts | 291° |
| 2026-05-06 07:22 | 52.30261 | 4.73740 | -2 ft | 12 kts | 2° |
| 2026-05-06 07:22 | 52.30357 | 4.73749 | -2 ft | 23 kts | 3° |
| 2026-05-06 07:23 | 52.30732 | 4.73783 | 4 ft | 87 kts | 3° |
| 2026-05-06 07:23 | 52.31553 | 4.73857 | 0 ft | 148 kts | 3° |
| 2026-05-06 07:23 | 52.32747 | 4.73969 | 57 ft | 186 kts | 3° |
| 2026-05-06 07:23 | 52.34057 | 4.74077 | 438 ft | 193 kts | 2° |
| 2026-05-06 07:24 | 52.35406 | 4.74306 | 803 ft | 199 kts | 22° |
| 2026-05-06 07:24 | 52.36564 | 4.75527 | 1248 ft | 199 kts | 46° |
| 2026-05-06 07:24 | 52.37268 | 4.77497 | 1618 ft | 211 kts | 70° |
| 2026-05-06 07:24 | 52.37429 | 4.79965 | 1738 ft | 229 kts | 96° |
| 2026-05-06 07:25 | 52.36902 | 4.82516 | 1881 ft | 249 kts | 121° |
| 2026-05-06 07:25 | 52.35599 | 4.84479 | 2197 ft | 267 kts | 152° |
| 2026-05-06 07:25 | 52.33758 | 4.85097 | 2597 ft | 277 kts | 178° |
| 2026-05-06 07:25 | 52.31810 | 4.84991 | 3004 ft | 283 kts | 179° |
| 2026-05-06 07:26 | 52.29863 | 4.84912 | 3551 ft | 285 kts | 178° |
| 2026-05-06 07:26 | 52.27865 | 4.84854 | 4076 ft | 289 kts | 178° |
| 2026-05-06 07:26 | 52.25851 | 4.84803 | 4673 ft | 290 kts | 178° |
| 2026-05-06 07:26 | 52.23821 | 4.84753 | 5253 ft | 292 kts | 179° |
| 2026-05-06 07:27 | 52.21791 | 4.84708 | 5848 ft | 292 kts | 179° |
| 2026-05-06 07:27 | 52.19765 | 4.84664 | 6394 ft | 294 kts | 180° |
| 2026-05-06 07:27 | 52.17714 | 4.84620 | 6896 ft | 296 kts | 180° |
| 2026-05-06 07:27 | 52.15647 | 4.84578 | 7410 ft | 298 kts | 180° |
| 2026-05-06 07:28 | 52.13566 | 4.84535 | 7912 ft | 300 kts | 180° |
| 2026-05-06 07:28 | 52.11470 | 4.84492 | 8412 ft | 302 kts | 181° |
| 2026-05-06 07:28 | 52.07263 | 4.84405 | 9436 ft | 306 kts | 181° |
| 2026-05-06 07:29 | 52.05124 | 4.84361 | 9919 ft | 308 kts | 181° |
| 2026-05-06 07:29 | 52.02948 | 4.84305 | 10152 ft | 318 kts | 184° |
| 2026-05-06 07:29 | 52.00773 | 4.83502 | 10198 ft | 327 kts | 207° |
| 2026-05-06 07:29 | 51.98729 | 4.81751 | 10343 ft | 339 kts | 208° |
| 2026-05-06 07:30 | 51.96575 | 4.79985 | 10458 ft | 355 kts | 207° |
| 2026-05-06 07:30 | 51.94303 | 4.78195 | 10654 ft | 370 kts | 206° |
| 2026-05-06 07:30 | 51.91955 | 4.76363 | 11015 ft | 379 kts | 206° |